sensor_id;sensor_type;location;lat;lon;timestamp;pressure;altitude;pressure_sealevel;temperature;humidity
17311;BME280;8773;43.300;0.394;2023-01-25T00:01:46;101239.50;;;1.90;65.47
17311;BME280;8773;43.300;0.394;2023-01-25T00:04:14;101249.06;;;1.93;65.46
17311;BME280;8773;43.300;0.394;2023-01-25T00:06:49;101247.28;;;1.93;65.28
17311;BME280;8773;43.300;0.394;2023-01-25T00:09:21;101248.13;;;1.94;65.53
17311;BME280;8773;43.300;0.394;2023-01-25T00:11:50;101251.75;;;1.91;65.89
17311;BME280;8773;43.300;0.394;2023-01-25T00:14:18;101243.91;;;1.90;65.67
17311;BME280;8773;43.300;0.394;2023-01-25T00:16:48;101243.19;;;1.86;65.41
17311;BME280;8773;43.300;0.394;2023-01-25T00:19:16;101249.44;;;1.84;65.30
17311;BME280;8773;43.300;0.394;2023-01-25T00:21:44;101251.13;;;1.85;65.88
17311;BME280;8773;43.300;0.394;2023-01-25T00:24:12;101242.44;;;1.83;65.47
17311;BME280;8773;43.300;0.394;2023-01-25T00:26:41;101235.53;;;1.80;65.48
17311;BME280;8773;43.300;0.394;2023-01-25T00:29:11;101235.72;;;1.75;66.19
17311;BME280;8773;43.300;0.394;2023-01-25T00:31:53;101247.28;;;1.71;66.37
17311;BME280;8773;43.300;0.394;2023-01-25T00:34:43;101239.63;;;1.65;65.84
17311;BME280;8773;43.300;0.394;2023-01-25T00:37:19;101242.78;;;1.53;66.87
17311;BME280;8773;43.300;0.394;2023-01-25T00:39:50;101240.09;;;1.55;66.65
17311;BME280;8773;43.300;0.394;2023-01-25T00:42:19;101235.75;;;1.54;66.54
17311;BME280;8773;43.300;0.394;2023-01-25T00:44:48;101233.03;;;1.33;67.57
17311;BME280;8773;43.300;0.394;2023-01-25T00:47:16;101233.78;;;1.37;67.16
17311;BME280;8773;43.300;0.394;2023-01-25T00:49:46;101233.78;;;1.37;67.57
17311;BME280;8773;43.300;0.394;2023-01-25T00:52:14;101231.94;;;1.39;67.06
17311;BME280;8773;43.300;0.394;2023-01-25T00:54:42;101233.66;;;1.40;67.11
17311;BME280;8773;43.300;0.394;2023-01-25T00:57:10;101231.22;;;1.35;66.71
17311;BME280;8773;43.300;0.394;2023-01-25T00:59:39;101239.09;;;1.35;66.50
17311;BME280;8773;43.300;0.394;2023-01-25T01:02:10;101235.00;;;1.28;67.13
17311;BME280;8773;43.300;0.394;2023-01-25T01:04:38;101230.72;;;1.26;67.02
17311;BME280;8773;43.300;0.394;2023-01-25T01:07:10;101230.53;;;1.30;66.99
17311;BME280;8773;43.300;0.394;2023-01-25T01:09:39;101226.91;;;1.33;66.77
17311;BME280;8773;43.300;0.394;2023-01-25T01:12:07;101227.97;;;1.29;66.84
17311;BME280;8773;43.300;0.394;2023-01-25T01:14:35;101228.88;;;1.28;66.50
17311;BME280;8773;43.300;0.394;2023-01-25T01:17:03;101228.25;;;1.21;67.03
17311;BME280;8773;43.300;0.394;2023-01-25T01:19:31;101232.84;;;1.16;66.54
17311;BME280;8773;43.300;0.394;2023-01-25T01:21:59;101231.66;;;1.01;67.81
17311;BME280;8773;43.300;0.394;2023-01-25T01:24:28;101240.31;;;1.05;67.99
17311;BME280;8773;43.300;0.394;2023-01-25T01:26:56;101235.09;;;1.03;67.45
17311;BME280;8773;43.300;0.394;2023-01-25T01:29:25;101236.69;;;1.07;67.98
17311;BME280;8773;43.300;0.394;2023-01-25T01:31:53;101240.06;;;1.11;67.32
17311;BME280;8773;43.300;0.394;2023-01-25T01:34:22;101246.31;;;1.08;67.46
17311;BME280;8773;43.300;0.394;2023-01-25T01:36:50;101242.81;;;1.08;67.34
17311;BME280;8773;43.300;0.394;2023-01-25T01:39:18;101248.03;;;1.09;67.27
17311;BME280;8773;43.300;0.394;2023-01-25T01:41:47;101243.91;;;1.02;67.51
17311;BME280;8773;43.300;0.394;2023-01-25T01:44:18;101248.25;;;1.03;67.15
17311;BME280;8773;43.300;0.394;2023-01-25T01:46:51;101252.47;;;1.07;66.84
17311;BME280;8773;43.300;0.394;2023-01-25T01:49:23;101238.75;;;0.99;67.23
17311;BME280;8773;43.300;0.394;2023-01-25T01:51:57;101251.97;;;0.98;67.19
17311;BME280;8773;43.300;0.394;2023-01-25T01:54:29;101257.13;;;1.01;67.41
17311;BME280;8773;43.300;0.394;2023-01-25T01:57:05;101257.41;;;0.93;67.69
17311;BME280;8773;43.300;0.394;2023-01-25T01:59:38;101264.53;;;0.90;67.83
17311;BME280;8773;43.300;0.394;2023-01-25T02:02:08;101271.78;;;0.83;67.98
17311;BME280;8773;43.300;0.394;2023-01-25T02:04:36;101265.09;;;0.74;68.55
17311;BME280;8773;43.300;0.394;2023-01-25T02:07:08;101284.03;;;0.84;67.90
17311;BME280;8773;43.300;0.394;2023-01-25T02:09:38;101274.31;;;0.86;68.27
17311;BME280;8773;43.300;0.394;2023-01-25T02:12:09;101279.78;;;0.80;69.26
17311;BME280;8773;43.300;0.394;2023-01-25T02:14:39;101287.28;;;0.91;69.08
17311;BME280;8773;43.300;0.394;2023-01-25T02:17:11;101288.56;;;1.04;68.83
17311;BME280;8773;43.300;0.394;2023-01-25T02:19:44;101291.63;;;1.15;68.14
17311;BME280;8773;43.300;0.394;2023-01-25T02:22:21;101288.94;;;1.17;67.76
17311;BME280;8773;43.300;0.394;2023-01-25T02:25:00;101278.28;;;1.20;67.71
17311;BME280;8773;43.300;0.394;2023-01-25T02:27:31;101279.22;;;1.19;66.87
17311;BME280;8773;43.300;0.394;2023-01-25T02:30:03;101293.09;;;1.22;67.27
17311;BME280;8773;43.300;0.394;2023-01-25T02:32:31;101296.88;;;1.15;67.36
17311;BME280;8773;43.300;0.394;2023-01-25T02:35:03;101290.66;;;1.18;67.25
17311;BME280;8773;43.300;0.394;2023-01-25T02:37:31;101297.63;;;1.19;67.40
17311;BME280;8773;43.300;0.394;2023-01-25T02:40:01;101300.78;;;1.05;68.52
17311;BME280;8773;43.300;0.394;2023-01-25T02:42:31;101300.31;;;1.17;67.72
17311;BME280;8773;43.300;0.394;2023-01-25T02:45:01;101296.81;;;1.17;68.17
17311;BME280;8773;43.300;0.394;2023-01-25T02:47:31;101285.16;;;1.24;67.99
17311;BME280;8773;43.300;0.394;2023-01-25T02:49:59;101293.44;;;1.36;67.65
17311;BME280;8773;43.300;0.394;2023-01-25T02:52:27;101302.81;;;1.43;67.69
17311;BME280;8773;43.300;0.394;2023-01-25T02:54:55;101301.50;;;1.55;67.09
17311;BME280;8773;43.300;0.394;2023-01-25T02:57:25;101305.38;;;1.67;66.82
17311;BME280;8773;43.300;0.394;2023-01-25T02:59:53;101302.41;;;1.76;66.90
17311;BME280;8773;43.300;0.394;2023-01-25T03:02:21;101300.44;;;1.81;66.80
17311;BME280;8773;43.300;0.394;2023-01-25T03:04:49;101293.16;;;1.88;66.85
17311;BME280;8773;43.300;0.394;2023-01-25T03:07:17;101289.47;;;1.92;66.83
17311;BME280;8773;43.300;0.394;2023-01-25T03:09:45;101285.38;;;2.05;66.29
17311;BME280;8773;43.300;0.394;2023-01-25T03:12:14;101284.34;;;2.09;65.81
17311;BME280;8773;43.300;0.394;2023-01-25T03:14:43;101276.19;;;2.15;65.87
17311;BME280;8773;43.300;0.394;2023-01-25T03:17:11;101273.34;;;1.99;66.49
17311;BME280;8773;43.300;0.394;2023-01-25T03:19:39;101275.59;;;2.08;66.31
17311;BME280;8773;43.300;0.394;2023-01-25T03:22:07;101278.69;;;2.18;66.22
17311;BME280;8773;43.300;0.394;2023-01-25T03:24:36;101277.78;;;2.19;66.24
17311;BME280;8773;43.300;0.394;2023-01-25T03:27:04;101278.31;;;2.27;66.18
17311;BME280;8773;43.300;0.394;2023-01-25T03:29:40;101282.78;;;2.25;66.15
17311;BME280;8773;43.300;0.394;2023-01-25T03:32:09;101282.78;;;2.25;65.54
17311;BME280;8773;43.300;0.394;2023-01-25T03:34:38;101271.84;;;2.34;65.43
17311;BME280;8773;43.300;0.394;2023-01-25T03:37:06;101261.19;;;2.37;65.29
17311;BME280;8773;43.300;0.394;2023-01-25T03:39:34;101269.88;;;2.39;64.92
17311;BME280;8773;43.300;0.394;2023-01-25T03:42:02;101269.94;;;2.38;65.76
17311;BME280;8773;43.300;0.394;2023-01-25T03:44:30;101269.94;;;2.38;65.77
17311;BME280;8773;43.300;0.394;2023-01-25T03:46:58;101275.00;;;2.22;65.68
17311;BME280;8773;43.300;0.394;2023-01-25T03:49:31;101270.06;;;2.15;66.02
17311;BME280;8773;43.300;0.394;2023-01-25T03:51:59;101279.75;;;2.14;66.34
17311;BME280;8773;43.300;0.394;2023-01-25T03:54:27;101275.19;;;2.18;65.72
17311;BME280;8773;43.300;0.394;2023-01-25T03:56:55;101277.38;;;2.28;65.84
17311;BME280;8773;43.300;0.394;2023-01-25T03:59:23;101277.91;;;2.36;65.27
17311;BME280;8773;43.300;0.394;2023-01-25T04:01:51;101274.88;;;2.45;65.05
17311;BME280;8773;43.300;0.394;2023-01-25T04:04:20;101271.72;;;2.37;64.92
17311;BME280;8773;43.300;0.394;2023-01-25T04:06:49;101274.06;;;2.43;65.23
17311;BME280;8773;43.300;0.394;2023-01-25T04:09:17;101269.66;;;2.44;65.41
17311;BME280;8773;43.300;0.394;2023-01-25T04:11:48;101271.09;;;2.51;65.06
17311;BME280;8773;43.300;0.394;2023-01-25T04:14:16;101270.06;;;2.55;65.43
17311;BME280;8773;43.300;0.394;2023-01-25T04:17:00;101274.88;;;2.45;65.19
17311;BME280;8773;43.300;0.394;2023-01-25T04:19:31;101274.28;;;2.19;66.38
17311;BME280;8773;43.300;0.394;2023-01-25T04:22:00;101273.97;;;2.26;66.59
17311;BME280;8773;43.300;0.394;2023-01-25T04:24:28;101269.88;;;2.39;65.95
17311;BME280;8773;43.300;0.394;2023-01-25T04:26:56;101280.44;;;2.39;65.01
17311;BME280;8773;43.300;0.394;2023-01-25T04:29:24;101283.69;;;2.44;66.00
17311;BME280;8773;43.300;0.394;2023-01-25T04:32:06;101283.38;;;2.52;64.97
17311;BME280;8773;43.300;0.394;2023-01-25T04:34:35;101284.16;;;2.54;65.31
17311;BME280;8773;43.300;0.394;2023-01-25T04:37:04;101291.06;;;2.57;64.50
17311;BME280;8773;43.300;0.394;2023-01-25T04:39:35;101292.75;;;2.39;65.23
17311;BME280;8773;43.300;0.394;2023-01-25T04:42:03;101294.84;;;2.31;65.86
17311;BME280;8773;43.300;0.394;2023-01-25T04:44:31;101294.25;;;2.24;65.92
17311;BME280;8773;43.300;0.394;2023-01-25T04:47:02;101296.38;;;2.36;65.93
17311;BME280;8773;43.300;0.394;2023-01-25T04:49:30;101297.34;;;2.34;65.58
17311;BME280;8773;43.300;0.394;2023-01-25T04:51:58;101298.47;;;2.28;65.97
17311;BME280;8773;43.300;0.394;2023-01-25T04:54:28;101294.88;;;2.09;66.85
17311;BME280;8773;43.300;0.394;2023-01-25T04:56:56;101293.47;;;2.22;67.08
17311;BME280;8773;43.300;0.394;2023-01-25T04:59:24;101289.03;;;2.23;66.45
17311;BME280;8773;43.300;0.394;2023-01-25T05:01:52;101285.00;;;2.14;67.36
17311;BME280;8773;43.300;0.394;2023-01-25T05:04:20;101286.16;;;1.87;68.20
17311;BME280;8773;43.300;0.394;2023-01-25T05:06:48;101292.59;;;1.80;67.94
17311;BME280;8773;43.300;0.394;2023-01-25T05:09:16;101282.88;;;1.82;67.82
17311;BME280;8773;43.300;0.394;2023-01-25T05:11:46;101280.41;;;1.99;67.75
17311;BME280;8773;43.300;0.394;2023-01-25T05:14:14;101258.13;;;2.06;66.67
17311;BME280;8773;43.300;0.394;2023-01-25T05:16:42;101267.44;;;2.15;66.78
17311;BME280;8773;43.300;0.394;2023-01-25T05:19:10;101263.69;;;2.20;66.78
17311;BME280;8773;43.300;0.394;2023-01-25T05:21:38;101263.06;;;1.93;67.06
17311;BME280;8773;43.300;0.394;2023-01-25T05:24:25;101262.25;;;1.49;68.73
17311;BME280;8773;43.300;0.394;2023-01-25T05:26:55;101261.44;;;1.47;69.05
17311;BME280;8773;43.300;0.394;2023-01-25T05:29:33;101257.78;;;1.51;68.77
17311;BME280;8773;43.300;0.394;2023-01-25T05:32:03;101271.19;;;1.22;69.96
17311;BME280;8773;43.300;0.394;2023-01-25T05:34:31;101267.25;;;1.33;70.01
17311;BME280;8773;43.300;0.394;2023-01-25T05:37:00;101264.75;;;1.52;68.89
17311;BME280;8773;43.300;0.394;2023-01-25T05:39:29;101267.00;;;1.61;68.64
17311;BME280;8773;43.300;0.394;2023-01-25T05:41:58;101259.88;;;1.20;70.18
17311;BME280;8773;43.300;0.394;2023-01-25T05:44:27;101269.66;;;1.16;70.39
17311;BME280;8773;43.300;0.394;2023-01-25T05:46:55;101270.50;;;1.40;69.74
17311;BME280;8773;43.300;0.394;2023-01-25T05:49:23;101274.09;;;1.59;69.04
17311;BME280;8773;43.300;0.394;2023-01-25T05:51:51;101273.31;;;1.57;68.70
17311;BME280;8773;43.300;0.394;2023-01-25T05:54:19;101263.81;;;1.75;68.49
17311;BME280;8773;43.300;0.394;2023-01-25T05:56:49;101270.13;;;1.93;67.76
17311;BME280;8773;43.300;0.394;2023-01-25T05:59:18;101270.50;;;2.04;67.42
17311;BME280;8773;43.300;0.394;2023-01-25T06:01:47;101271.44;;;2.03;67.19
17311;BME280;8773;43.300;0.394;2023-01-25T06:04:15;101266.16;;;1.83;66.91
17311;BME280;8773;43.300;0.394;2023-01-25T06:06:43;101266.75;;;1.89;67.87
17311;BME280;8773;43.300;0.394;2023-01-25T06:09:12;101271.34;;;2.04;67.48
17311;BME280;8773;43.300;0.394;2023-01-25T06:11:42;101275.88;;;1.59;68.12
17311;BME280;8773;43.300;0.394;2023-01-25T06:14:11;101269.59;;;1.41;69.09
17311;BME280;8773;43.300;0.394;2023-01-25T06:16:40;101279.25;;;1.62;68.45
17311;BME280;8773;43.300;0.394;2023-01-25T06:19:11;101280.66;;;1.71;68.06
17311;BME280;8773;43.300;0.394;2023-01-25T06:21:39;101282.88;;;1.82;67.77
17311;BME280;8773;43.300;0.394;2023-01-25T06:24:07;101279.25;;;2.04;67.40
17311;BME280;8773;43.300;0.394;2023-01-25T06:26:36;101283.16;;;2.16;66.86
17311;BME280;8773;43.300;0.394;2023-01-25T06:29:04;101289.31;;;2.17;67.07
17311;BME280;8773;43.300;0.394;2023-01-25T06:31:32;101287.00;;;2.29;66.53
17311;BME280;8773;43.300;0.394;2023-01-25T06:34:05;101291.22;;;2.33;66.47
17311;BME280;8773;43.300;0.394;2023-01-25T06:36:34;101287.41;;;2.40;66.38
17311;BME280;8773;43.300;0.394;2023-01-25T06:39:02;101294.25;;;2.44;66.45
17311;BME280;8773;43.300;0.394;2023-01-25T06:41:30;101294.25;;;2.44;66.58
17311;BME280;8773;43.300;0.394;2023-01-25T06:43:58;101300.38;;;2.45;65.96
17311;BME280;8773;43.300;0.394;2023-01-25T06:46:26;101295.69;;;2.52;65.82
17311;BME280;8773;43.300;0.394;2023-01-25T06:48:55;101305.06;;;2.59;65.29
17311;BME280;8773;43.300;0.394;2023-01-25T06:51:24;101302.28;;;2.62;65.77
17311;BME280;8773;43.300;0.394;2023-01-25T06:53:52;101302.94;;;2.67;65.59
17311;BME280;8773;43.300;0.394;2023-01-25T06:56:21;101295.56;;;2.55;65.81
17311;BME280;8773;43.300;0.394;2023-01-25T06:58:53;101295.09;;;2.45;66.45
17311;BME280;8773;43.300;0.394;2023-01-25T07:01:22;101290.69;;;2.25;66.85
17311;BME280;8773;43.300;0.394;2023-01-25T07:03:54;101297.47;;;2.10;67.59
17311;BME280;8773;43.300;0.394;2023-01-25T07:06:29;101309.03;;;2.06;67.49
17311;BME280;8773;43.300;0.394;2023-01-25T07:09:01;101313.06;;;2.15;66.84
17311;BME280;8773;43.300;0.394;2023-01-25T07:11:30;101317.03;;;2.25;66.59
17311;BME280;8773;43.300;0.394;2023-01-25T07:13:58;101325.75;;;2.27;66.58
17311;BME280;8773;43.300;0.394;2023-01-25T07:16:26;101323.97;;;2.28;66.46
17311;BME280;8773;43.300;0.394;2023-01-25T07:18:54;101331.44;;;2.38;65.98
17311;BME280;8773;43.300;0.394;2023-01-25T07:21:23;101327.28;;;2.33;65.34
17311;BME280;8773;43.300;0.394;2023-01-25T07:23:51;101349.22;;;2.33;65.57
17311;BME280;8773;43.300;0.394;2023-01-25T07:26:21;101346.25;;;2.41;65.50
17311;BME280;8773;43.300;0.394;2023-01-25T07:28:50;101349.53;;;2.46;64.42
17311;BME280;8773;43.300;0.394;2023-01-25T07:31:19;101347.38;;;2.35;64.64
17311;BME280;8773;43.300;0.394;2023-01-25T07:33:48;101345.78;;;2.31;65.33
17311;BME280;8773;43.300;0.394;2023-01-25T07:36:17;101339.78;;;2.28;64.97
17311;BME280;8773;43.300;0.394;2023-01-25T07:38:46;101340.94;;;2.21;64.60
17311;BME280;8773;43.300;0.394;2023-01-25T07:41:14;101337.47;;;2.20;64.57
17311;BME280;8773;43.300;0.394;2023-01-25T07:43:43;101333.53;;;2.08;64.52
17311;BME280;8773;43.300;0.394;2023-01-25T07:46:12;101324.84;;;2.06;64.36
17311;BME280;8773;43.300;0.394;2023-01-25T07:48:45;101342.75;;;1.98;64.76
17311;BME280;8773;43.300;0.394;2023-01-25T07:51:14;101348.50;;;2.08;65.31
17311;BME280;8773;43.300;0.394;2023-01-25T07:53:56;101339.47;;;2.14;64.98
17311;BME280;8773;43.300;0.394;2023-01-25T07:56:26;101336.34;;;2.26;64.87
17311;BME280;8773;43.300;0.394;2023-01-25T07:58:56;101343.94;;;2.33;64.75
17311;BME280;8773;43.300;0.394;2023-01-25T08:01:26;101340.56;;;2.30;64.52
17311;BME280;8773;43.300;0.394;2023-01-25T08:03:55;101338.91;;;2.27;64.78
17311;BME280;8773;43.300;0.394;2023-01-25T08:06:25;101351.66;;;2.38;64.30
17311;BME280;8773;43.300;0.394;2023-01-25T08:08:58;101353.75;;;2.30;64.30
17311;BME280;8773;43.300;0.394;2023-01-25T08:11:28;101333.66;;;2.27;64.53
17311;BME280;8773;43.300;0.394;2023-01-25T08:13:56;101340.63;;;2.28;64.80
17311;BME280;8773;43.300;0.394;2023-01-25T08:16:25;101345.53;;;2.37;64.49
17311;BME280;8773;43.300;0.394;2023-01-25T08:18:55;101342.09;;;2.56;64.51
17311;BME280;8773;43.300;0.394;2023-01-25T08:21:24;101343.63;;;2.61;63.90
17311;BME280;8773;43.300;0.394;2023-01-25T08:23:58;101341.25;;;2.75;63.98
17311;BME280;8773;43.300;0.394;2023-01-25T08:26:27;101346.69;;;2.91;63.89
17311;BME280;8773;43.300;0.394;2023-01-25T08:28:56;101327.88;;;2.99;63.38
17311;BME280;8773;43.300;0.394;2023-01-25T08:31:26;101340.47;;;3.13;62.75
17311;BME280;8773;43.300;0.394;2023-01-25T08:33:55;101335.31;;;3.09;62.99
17311;BME280;8773;43.300;0.394;2023-01-25T08:36:24;101342.69;;;3.22;62.81
17311;BME280;8773;43.300;0.394;2023-01-25T08:38:55;101333.72;;;3.26;62.02
17311;BME280;8773;43.300;0.394;2023-01-25T08:41:26;101341.31;;;3.32;62.67
17311;BME280;8773;43.300;0.394;2023-01-25T08:43:55;101347.47;;;3.32;62.96
17311;BME280;8773;43.300;0.394;2023-01-25T08:46:25;101348.63;;;3.45;62.60
17311;BME280;8773;43.300;0.394;2023-01-25T08:48:58;101337.78;;;3.52;62.16
17311;BME280;8773;43.300;0.394;2023-01-25T08:51:27;101347.47;;;3.51;61.94
17311;BME280;8773;43.300;0.394;2023-01-25T08:54:01;101338.06;;;3.64;61.74
17311;BME280;8773;43.300;0.394;2023-01-25T08:56:30;101340.41;;;3.70;61.41
17311;BME280;8773;43.300;0.394;2023-01-25T08:58:59;101344.72;;;3.90;61.68
17311;BME280;8773;43.300;0.394;2023-01-25T09:01:27;101348.38;;;3.88;60.82
17311;BME280;8773;43.300;0.394;2023-01-25T09:03:55;101344.22;;;3.82;60.89
17311;BME280;8773;43.300;0.394;2023-01-25T09:06:23;101346.28;;;3.94;61.04
17311;BME280;8773;43.300;0.394;2023-01-25T09:08:51;101351.25;;;4.02;60.88
17311;BME280;8773;43.300;0.394;2023-01-25T09:11:21;101350.38;;;4.01;60.60
17311;BME280;8773;43.300;0.394;2023-01-25T09:13:50;101351.88;;;4.07;60.69
17311;BME280;8773;43.300;0.394;2023-01-25T09:16:20;101344.88;;;4.06;60.20
17311;BME280;8773;43.300;0.394;2023-01-25T09:18:56;101354.44;;;4.08;60.23
17311;BME280;8773;43.300;0.394;2023-01-25T09:21:24;101349.88;;;4.12;59.97
17311;BME280;8773;43.300;0.394;2023-01-25T09:23:53;101354.91;;;4.17;60.33
17311;BME280;8773;43.300;0.394;2023-01-25T09:26:40;101343.41;;;4.18;59.73
17311;BME280;8773;43.300;0.394;2023-01-25T09:29:22;101346.44;;;4.27;59.56
17311;BME280;8773;43.300;0.394;2023-01-25T09:31:50;101344.59;;;4.29;59.88
17311;BME280;8773;43.300;0.394;2023-01-25T09:34:19;101342.78;;;4.30;59.29
17311;BME280;8773;43.300;0.394;2023-01-25T09:36:48;101342.94;;;4.27;58.64
17311;BME280;8773;43.300;0.394;2023-01-25T09:39:16;101336.50;;;4.32;59.40
17311;BME280;8773;43.300;0.394;2023-01-25T09:42:04;101335.13;;;4.42;59.70
17311;BME280;8773;43.300;0.394;2023-01-25T09:44:54;101346.56;;;4.43;59.37
17311;BME280;8773;43.300;0.394;2023-01-25T09:47:29;101337.31;;;4.52;59.53
17311;BME280;8773;43.300;0.394;2023-01-25T09:50:21;101340.31;;;4.61;59.87
17311;BME280;8773;43.300;0.394;2023-01-25T09:53:10;101341.63;;;4.70;59.53
17311;BME280;8773;43.300;0.394;2023-01-25T09:55:43;101340.63;;;4.72;59.24
17311;BME280;8773;43.300;0.394;2023-01-25T09:58:19;101344.44;;;4.50;59.22
17311;BME280;8773;43.300;0.394;2023-01-25T10:00:53;101331.84;;;4.55;59.70
17311;BME280;8773;43.300;0.394;2023-01-25T10:03:30;101345.00;;;4.56;59.93
17311;BME280;8773;43.300;0.394;2023-01-25T10:06:03;101344.31;;;4.53;60.37
17311;BME280;8773;43.300;0.394;2023-01-25T10:08:35;101339.63;;;4.58;60.32
17311;BME280;8773;43.300;0.394;2023-01-25T10:11:12;101345.53;;;4.63;59.77
17311;BME280;8773;43.300;0.394;2023-01-25T10:13:43;101343.72;;;4.63;58.93
17311;BME280;8773;43.300;0.394;2023-01-25T10:16:20;101350.13;;;4.59;58.70
17311;BME280;8773;43.300;0.394;2023-01-25T10:18:58;101351.59;;;4.65;59.09
17311;BME280;8773;43.300;0.394;2023-01-25T10:21:36;101346.38;;;4.63;58.88
17311;BME280;8773;43.300;0.394;2023-01-25T10:24:39;101352.84;;;4.75;58.96
17311;BME280;8773;43.300;0.394;2023-01-25T10:27:23;101350.19;;;4.92;58.27
17311;BME280;8773;43.300;0.394;2023-01-25T10:29:56;101352.91;;;4.91;57.75
17311;BME280;8773;43.300;0.394;2023-01-25T10:32:29;101361.38;;;4.80;57.77
17311;BME280;8773;43.300;0.394;2023-01-25T10:35:10;101349.09;;;4.96;58.33
17311;BME280;8773;43.300;0.394;2023-01-25T10:37:51;101348.06;;;4.99;57.58
17311;BME280;8773;43.300;0.394;2023-01-25T10:40:22;101351.50;;;4.84;57.58
17311;BME280;8773;43.300;0.394;2023-01-25T10:42:55;101348.59;;;4.55;59.01
17311;BME280;8773;43.300;0.394;2023-01-25T10:45:25;101351.50;;;4.66;58.62
17311;BME280;8773;43.300;0.394;2023-01-25T10:47:59;101344.81;;;4.94;58.68
17311;BME280;8773;43.300;0.394;2023-01-25T10:50:47;101338.81;;;4.90;57.53
17311;BME280;8773;43.300;0.394;2023-01-25T10:53:28;101341.63;;;4.87;57.79
17311;BME280;8773;43.300;0.394;2023-01-25T10:55:59;101335.09;;;5.10;57.72
17311;BME280;8773;43.300;0.394;2023-01-25T10:58:30;101336.53;;;5.33;57.04
17311;BME280;8773;43.300;0.394;2023-01-25T11:00:59;101328.38;;;5.20;56.44
17311;BME280;8773;43.300;0.394;2023-01-25T11:03:36;101322.34;;;5.34;56.70
17311;BME280;8773;43.300;0.394;2023-01-25T11:06:05;101319.75;;;5.48;56.42
17311;BME280;8773;43.300;0.394;2023-01-25T11:08:36;101319.75;;;5.17;57.48
17311;BME280;8773;43.300;0.394;2023-01-25T11:11:23;101312.53;;;5.36;56.53
17311;BME280;8773;43.300;0.394;2023-01-25T11:13:52;101305.94;;;5.27;56.54
17311;BME280;8773;43.300;0.394;2023-01-25T11:16:30;101307.97;;;5.22;56.77
17311;BME280;8773;43.300;0.394;2023-01-25T11:19:01;101305.22;;;5.24;56.78
17311;BME280;8773;43.300;0.394;2023-01-25T11:21:31;101301.66;;;5.25;57.31
17311;BME280;8773;43.300;0.394;2023-01-25T11:24:03;101292.59;;;5.29;57.30
17311;BME280;8773;43.300;0.394;2023-01-25T11:26:43;101292.41;;;5.48;56.18
17311;BME280;8773;43.300;0.394;2023-01-25T11:29:14;101285.94;;;5.53;56.80
17311;BME280;8773;43.300;0.394;2023-01-25T11:31:45;101274.41;;;5.54;56.65
17311;BME280;8773;43.300;0.394;2023-01-25T11:34:16;101271.59;;;5.41;57.08
17311;BME280;8773;43.300;0.394;2023-01-25T11:36:58;101272.59;;;5.55;57.72
17311;BME280;8773;43.300;0.394;2023-01-25T11:39:40;101263.06;;;5.36;56.96
17311;BME280;8773;43.300;0.394;2023-01-25T11:42:19;101257.38;;;5.58;57.46
17311;BME280;8773;43.300;0.394;2023-01-25T11:45:01;101253.97;;;5.56;56.78
17311;BME280;8773;43.300;0.394;2023-01-25T11:47:42;101246.53;;;5.63;56.50
17311;BME280;8773;43.300;0.394;2023-01-25T11:50:23;101238.59;;;5.93;54.99
17311;BME280;8773;43.300;0.394;2023-01-25T11:53:07;101227.31;;;6.19;54.25
17311;BME280;8773;43.300;0.394;2023-01-25T11:55:43;101230.84;;;6.20;54.08
17311;BME280;8773;43.300;0.394;2023-01-25T11:58:31;101227.16;;;6.22;54.07
17311;BME280;8773;43.300;0.394;2023-01-25T12:01:10;101227.16;;;6.22;53.77
17311;BME280;8773;43.300;0.394;2023-01-25T12:04:06;101227.81;;;6.26;52.30
17311;BME280;8773;43.300;0.394;2023-01-25T12:06:52;101223.09;;;6.01;52.55
17311;BME280;8773;43.300;0.394;2023-01-25T12:09:31;101210.94;;;6.12;52.36
17311;BME280;8773;43.300;0.394;2023-01-25T12:12:09;101201.22;;;6.27;52.48
17311;BME280;8773;43.300;0.394;2023-01-25T12:14:53;101189.41;;;6.47;51.96
17311;BME280;8773;43.300;0.394;2023-01-25T12:17:35;101186.97;;;6.14;51.38
17311;BME280;8773;43.300;0.394;2023-01-25T12:20:22;101184.88;;;6.05;52.28
17311;BME280;8773;43.300;0.394;2023-01-25T12:23:06;101170.69;;;6.20;52.11
17311;BME280;8773;43.300;0.394;2023-01-25T12:25:50;101169.09;;;6.32;52.23
17311;BME280;8773;43.300;0.394;2023-01-25T12:28:24;101163.06;;;6.44;51.79
17311;BME280;8773;43.300;0.394;2023-01-25T12:30:58;101162.63;;;6.36;50.89
17311;BME280;8773;43.300;0.394;2023-01-25T12:33:35;101155.19;;;6.42;50.96
17311;BME280;8773;43.300;0.394;2023-01-25T12:36:08;101149.09;;;6.40;51.08
17311;BME280;8773;43.300;0.394;2023-01-25T12:38:43;101152.88;;;6.36;51.19
17311;BME280;8773;43.300;0.394;2023-01-25T12:41:25;101151.19;;;6.21;50.65
17311;BME280;8773;43.300;0.394;2023-01-25T12:44:02;101151.66;;;6.14;51.30
17311;BME280;8773;43.300;0.394;2023-01-25T12:46:39;101146.44;;;6.12;50.96
17311;BME280;8773;43.300;0.394;2023-01-25T12:49:19;101140.75;;;6.18;50.75
17311;BME280;8773;43.300;0.394;2023-01-25T12:51:50;101137.53;;;6.13;50.63
17311;BME280;8773;43.300;0.394;2023-01-25T12:54:25;101136.41;;;6.17;51.55
17311;BME280;8773;43.300;0.394;2023-01-25T12:57:01;101126.06;;;6.12;51.14
17311;BME280;8773;43.300;0.394;2023-01-25T12:59:38;101137.34;;;6.16;52.34
17311;BME280;8773;43.300;0.394;2023-01-25T13:02:23;101128.06;;;6.23;50.81
17311;BME280;8773;43.300;0.394;2023-01-25T13:04:59;101128.94;;;6.24;51.26
17311;BME280;8773;43.300;0.394;2023-01-25T13:07:33;101113.19;;;6.21;51.11
17311;BME280;8773;43.300;0.394;2023-01-25T13:10:14;101103.25;;;6.24;51.10
17311;BME280;8773;43.300;0.394;2023-01-25T13:12:51;101112.81;;;6.27;52.05
17311;BME280;8773;43.300;0.394;2023-01-25T13:15:37;101102.97;;;6.43;50.94
17311;BME280;8773;43.300;0.394;2023-01-25T13:18:37;101101.53;;;6.09;50.88
17311;BME280;8773;43.300;0.394;2023-01-25T13:21:11;101095.66;;;6.04;52.42
17311;BME280;8773;43.300;0.394;2023-01-25T13:24:13;101088.66;;;6.03;52.19
17311;BME280;8773;43.300;0.394;2023-01-25T13:26:49;101089.53;;;6.18;51.90
17311;BME280;8773;43.300;0.394;2023-01-25T13:29:42;101090.06;;;5.94;51.81
17311;BME280;8773;43.300;0.394;2023-01-25T13:32:13;101085.72;;;6.07;52.66
17311;BME280;8773;43.300;0.394;2023-01-25T13:34:56;101080.72;;;6.31;52.19
17311;BME280;8773;43.300;0.394;2023-01-25T13:37:26;101078.53;;;6.52;51.51